Time;durP1;ratioP1;P1;durP2;ratioP2;P2;SDS_P1;SDS_P2;PMS_P1;PMS_P2;Temp;Humidity;BMP_temperature;BMP_pressure;BME280_temperature;BME280_humidity;BME280_pressure;Samples;Min_cycle;Max_cycle;Signal;HPM_P1;HPM_P2
2022/07/22 00:00:51;;;;;;;4.28;3.45;;;26.20;52.50;;;;;;5043531;28;20239;-56
2022/07/22 00:03:17;;;;;;;3.92;3.15;;;26.20;52.50;;;;;;5041401;28;20341;-54
2022/07/22 00:05:42;;;;;;;4.82;3.83;;;26.20;52.50;;;;;;5064143;28;20028;-55
2022/07/22 00:08:08;;;;;;;4.05;3.42;;;26.20;52.60;;;;;;5014847;28;21314;-53
2022/07/22 00:10:33;;;;;;;3.42;3.13;;;26.20;52.60;;;;;;5042994;28;20048;-52
2022/07/22 00:12:59;;;;;;;4.28;3.50;;;26.10;52.60;;;;;;5037502;28;20488;-52
2022/07/22 00:15:24;;;;;;;3.78;2.95;;;26.10;52.60;;;;;;5045865;28;20036;-53
2022/07/22 00:17:50;;;;;;;4.47;3.25;;;26.10;52.60;;;;;;5053875;28;20734;-52
2022/07/22 00:20:15;;;;;;;3.97;3.15;;;26.10;52.60;;;;;;5042455;28;20098;-55
2022/07/22 00:22:41;;;;;;;4.00;3.33;;;26.10;52.70;;;;;;5034027;28;20028;-55
2022/07/22 00:25:07;;;;;;;4.03;3.10;;;26.10;52.70;;;;;;5063567;28;20073;-53
2022/07/22 00:27:32;;;;;;;4.07;3.17;;;26.10;52.70;;;;;;5057616;28;20036;-51
2022/07/22 00:29:58;;;;;;;4.25;3.72;;;26.10;52.70;;;;;;5024774;28;20025;-53
2022/07/22 00:32:23;;;;;;;4.75;3.60;;;26.10;52.70;;;;;;5046726;28;20441;-56
2022/07/22 00:34:49;;;;;;;4.40;3.30;;;26.10;52.70;;;;;;5063118;28;20094;-53
2022/07/22 00:37:14;;;;;;;3.63;3.33;;;26.10;52.70;;;;;;5043581;28;20531;-55
2022/07/22 00:39:40;;;;;;;6.63;3.20;;;26.00;52.60;;;;;;5025504;28;20558;-56
2022/07/22 00:42:05;;;;;;;3.65;3.20;;;26.00;52.60;;;;;;5043139;28;20392;-55
2022/07/22 00:44:31;;;;;;;3.85;3.50;;;26.00;52.60;;;;;;5028381;28;20052;-54
2022/07/22 00:46:57;;;;;;;3.78;3.47;;;26.00;52.60;;;;;;5063273;28;20021;-51
2022/07/22 00:49:22;;;;;;;3.50;3.20;;;26.00;52.50;;;;;;5044415;28;20043;-54
2022/07/22 00:51:48;;;;;;;5.72;3.50;;;26.00;52.50;;;;;;5025372;28;20037;-55
2022/07/22 00:54:13;;;;;;;4.30;3.63;;;26.00;52.50;;;;;;5059424;28;20572;-54
2022/07/22 00:56:39;;;;;;;3.78;3.45;;;26.00;52.40;;;;;;5045479;28;20487;-53
2022/07/22 00:59:05;;;;;;;3.60;3.30;;;26.00;52.40;;;;;;5048053;28;20436;-54
2022/07/22 01:01:31;;;;;;;3.70;3.08;;;26.00;52.50;;;;;;5043031;28;20045;-51
2022/07/22 01:03:57;;;;;;;3.75;3.45;;;26.00;52.40;;;;;;5055567;28;20082;-52
2022/07/22 01:06:22;;;;;;;4.22;3.65;;;25.90;52.40;;;;;;5062844;28;20060;-55
2022/07/22 01:08:48;;;;;;;4.15;3.40;;;25.90;52.40;;;;;;5051683;28;20480;-54
2022/07/22 01:11:15;;;;;;;3.92;3.42;;;25.90;52.40;;;;;;5042939;28;20079;-57
2022/07/22 01:13:41;;;;;;;4.32;3.45;;;25.90;52.50;;;;;;5052651;28;20035;-54
2022/07/22 01:16:07;;;;;;;5.60;3.38;;;25.90;52.40;;;;;;5045403;28;20021;-52
2022/07/22 01:18:32;;;;;;;5.03;3.80;;;25.90;52.40;;;;;;5017672;28;20443;-54
2022/07/22 01:20:58;;;;;;;4.20;3.30;;;25.90;52.50;;;;;;5005395;28;20037;-54
2022/07/22 01:23:24;;;;;;;5.47;3.53;;;25.90;52.50;;;;;;5016490;28;20488;-53
2022/07/22 01:25:49;;;;;;;3.95;3.42;;;25.90;52.50;;;;;;5045289;28;20028;-54
2022/07/22 01:28:15;;;;;;;3.80;3.47;;;25.90;52.50;;;;;;5059766;28;20400;-51
2022/07/22 01:30:40;;;;;;;4.68;3.47;;;25.90;52.50;;;;;;5025406;28;20029;-51
2022/07/22 01:33:06;;;;;;;3.80;3.38;;;25.90;52.50;;;;;;5047659;28;20029;-51
2022/07/22 01:35:31;;;;;;;4.32;3.83;;;25.90;52.50;;;;;;5066632;28;20076;-54
2022/07/22 01:37:57;;;;;;;3.72;3.05;;;25.90;52.50;;;;;;5066689;28;20040;-51
2022/07/22 01:40:22;;;;;;;4.10;3.70;;;25.90;52.50;;;;;;5047091;28;20044;-51
2022/07/22 01:42:48;;;;;;;5.47;3.90;;;25.80;52.50;;;;;;5045470;28;20072;-51
2022/07/22 01:45:13;;;;;;;4.10;3.70;;;25.80;52.50;;;;;;5064491;28;20630;-55
2022/07/22 01:47:39;;;;;;;3.95;3.55;;;25.80;52.50;;;;;;5067200;28;20643;-54
2022/07/22 01:50:05;;;;;;;5.38;3.53;;;25.80;52.50;;;;;;5049277;28;20037;-55
2022/07/22 01:52:31;;;;;;;3.70;3.40;;;25.80;52.50;;;;;;5028182;28;20037;-54
2022/07/22 01:54:56;;;;;;;4.28;3.85;;;25.90;52.60;;;;;;5059518;28;20032;-54
2022/07/22 01:57:22;;;;;;;5.07;3.80;;;25.80;52.50;;;;;;5065226;28;20033;-54
2022/07/22 01:59:47;;;;;;;6.78;3.67;;;25.80;52.60;;;;;;5053037;28;20639;-52
2022/07/22 02:02:13;;;;;;;4.15;3.63;;;25.80;52.70;;;;;;5027856;28;20029;-53
2022/07/22 02:04:38;;;;;;;4.55;3.70;;;25.80;53.40;;;;;;5037232;28;20051;-51
2022/07/22 02:07:04;;;;;;;5.28;3.90;;;25.80;52.70;;;;;;5066018;28;20094;-52
2022/07/22 02:09:29;;;;;;;4.18;3.78;;;25.80;52.70;;;;;;5057112;28;20595;-54
2022/07/22 02:11:55;;;;;;;4.75;3.65;;;25.80;52.80;;;;;;5045492;28;20037;-54
2022/07/22 02:14:20;;;;;;;4.15;3.80;;;25.80;52.80;;;;;;5051848;28;20032;-55
2022/07/22 02:16:46;;;;;;;4.55;3.55;;;25.80;52.80;;;;;;5047544;28;20032;-53
2022/07/22 02:19:12;;;;;;;4.60;3.53;;;25.70;52.70;;;;;;5061153;28;20752;-53
2022/07/22 02:21:37;;;;;;;4.28;3.60;;;25.70;52.70;;;;;;5028114;28;20159;-53
2022/07/22 02:24:03;;;;;;;6.93;4.13;;;25.70;52.70;;;;;;5047750;28;20218;-54
2022/07/22 02:26:29;;;;;;;5.03;3.72;;;25.70;52.70;;;;;;5065582;28;20033;-54
2022/07/22 02:28:54;;;;;;;4.47;4.07;;;25.70;52.80;;;;;;5046468;28;20214;-54
2022/07/22 02:31:20;;;;;;;5.45;3.88;;;25.70;52.80;;;;;;5035529;28;20043;-53
2022/07/22 02:33:46;;;;;;;3.90;3.60;;;25.70;52.70;;;;;;5044252;28;20040;-54
2022/07/22 02:36:11;;;;;;;5.28;4.28;;;25.70;52.70;;;;;;5064635;28;20041;-54
2022/07/22 02:38:37;;;;;;;5.18;4.18;;;25.70;53.40;;;;;;5064957;28;20025;-52
2022/07/22 02:41:02;;;;;;;4.35;3.78;;;25.70;52.80;;;;;;5029905;28;20133;-54
2022/07/22 02:43:28;;;;;;;4.40;4.00;;;25.70;52.70;;;;;;5027465;28;20029;-52
2022/07/22 02:45:53;;;;;;;4.03;3.60;;;25.70;52.80;;;;;;5059881;28;20040;-54
2022/07/22 02:48:19;;;;;;;6.57;4.45;;;25.70;52.80;;;;;;5065081;28;20025;-54
2022/07/22 02:50:46;;;;;;;4.43;3.50;;;25.60;52.80;;;;;;5051677;28;20106;-55
2022/07/22 02:53:11;;;;;;;5.78;3.40;;;25.70;52.80;;;;;;5027895;28;20040;-51
2022/07/22 02:55:37;;;;;;;5.03;3.72;;;25.60;52.80;;;;;;5038667;28;20024;-55
2022/07/22 02:58:06;;;;;;;4.25;3.70;;;25.60;52.80;;;;;;5065007;28;20209;-52
2022/07/22 03:00:31;;;;;;;4.13;3.72;;;25.60;52.80;;;;;;5036887;28;20408;-53
2022/07/22 03:02:57;;;;;;;4.20;3.45;;;25.60;52.80;;;;;;5027234;28;20029;-52
2022/07/22 03:05:22;;;;;;;3.70;3.35;;;25.60;52.70;;;;;;5052581;28;20031;-51
2022/07/22 03:07:48;;;;;;;6.60;4.28;;;25.60;52.70;;;;;;5047008;28;20021;-55
2022/07/22 03:10:14;;;;;;;4.15;3.78;;;25.60;52.70;;;;;;5058856;28;20688;-52
2022/07/22 03:12:39;;;;;;;4.30;3.90;;;25.60;52.80;;;;;;5044425;28;20612;-53
2022/07/22 03:15:05;;;;;;;4.60;4.20;;;25.60;52.80;;;;;;5038612;28;20022;-52
2022/07/22 03:17:34;;;;;;;4.47;4.07;;;25.60;52.80;;;;;;5063851;28;20047;-51
2022/07/22 03:20:02;;;;;;;4.18;3.80;;;25.60;52.80;;;;;;5043754;28;20020;-51
2022/07/22 03:22:27;;;;;;;4.35;3.95;;;25.50;52.80;;;;;;5026987;28;20037;-53
2022/07/22 03:24:53;;;;;;;4.88;4.47;;;25.50;52.80;;;;;;5045273;28;20021;-54
2022/07/22 03:27:18;;;;;;;4.30;3.90;;;25.50;52.80;;;;;;5064328;28;20396;-52
2022/07/22 03:29:44;;;;;;;5.20;4.13;;;25.50;52.80;;;;;;5064872;28;20021;-54
2022/07/22 03:32:09;;;;;;;4.50;4.07;;;25.50;52.90;;;;;;5044940;28;20068;-52
2022/07/22 03:34:35;;;;;;;5.15;4.28;;;25.50;53.60;;;;;;5044218;28;20055;-54
2022/07/22 03:37:00;;;;;;;4.07;3.78;;;25.50;53.00;;;;;;5026665;28;20453;-51
2022/07/22 03:39:26;;;;;;;6.20;3.75;;;25.50;53.10;;;;;;5044114;28;20037;-52
2022/07/22 03:41:51;;;;;;;3.80;3.50;;;25.50;53.10;;;;;;5041189;28;20158;-54
2022/07/22 03:44:17;;;;;;;6.35;4.30;;;25.50;53.20;;;;;;5079172;22;20013;-47
2022/07/22 03:46:42;;;;;;;4.38;3.97;;;25.50;53.20;;;;;;5024977;28;20164;-47
2022/07/22 03:49:08;;;;;;;4.50;3.95;;;25.50;53.20;;;;;;5024463;28;20029;-49
2022/07/22 03:51:33;;;;;;;4.00;3.70;;;25.50;53.30;;;;;;5024180;28;20404;-48
2022/07/22 03:53:59;;;;;;;6.80;4.18;;;25.50;53.30;;;;;;5024414;28;20040;-51
2022/07/22 03:56:24;;;;;;;4.47;4.03;;;25.50;53.30;;;;;;5023987;28;20101;-52
2022/07/22 03:58:50;;;;;;;4.97;4.43;;;25.50;53.30;;;;;;5024391;28;20058;-52
2022/07/22 04:01:15;;;;;;;4.97;4.43;;;25.50;53.30;;;;;;5024201;28;20585;-52
2022/07/22 04:03:41;;;;;;;4.07;3.67;;;25.40;53.30;;;;;;5007659;28;20033;-54
2022/07/22 04:06:07;;;;;;;3.90;3.50;;;25.50;53.40;;;;;;5028989;28;20083;-53
2022/07/22 04:08:32;;;;;;;4.63;4.20;;;25.40;53.40;;;;;;5023363;28;20108;-49
2022/07/22 04:10:58;;;;;;;5.32;3.80;;;25.50;53.40;;;;;;5024297;28;20033;-50
2022/07/22 04:13:23;;;;;;;6.95;4.22;;;25.40;53.40;;;;;;5024225;28;20083;-53
2022/07/22 04:15:48;;;;;;;4.97;3.75;;;25.40;53.40;;;;;;5024657;28;20114;-52
2022/07/22 04:18:17;;;;;;;4.22;3.75;;;25.40;54.10;;;;;;5024748;28;20029;-51
2022/07/22 04:20:42;;;;;;;4.53;4.13;;;25.40;53.50;;;;;;5024340;28;20519;-49
2022/07/22 04:23:08;;;;;;;4.57;4.18;;;25.40;53.50;;;;;;5006696;28;20034;-48
2022/07/22 04:25:33;;;;;;;4.60;3.97;;;25.40;53.60;;;;;;5006968;28;20549;-50
2022/07/22 04:27:59;;;;;;;5.63;4.15;;;25.40;53.70;;;;;;5024277;28;20029;-52
2022/07/22 04:30:24;;;;;;;5.28;4.38;;;25.40;53.60;;;;;;5023816;28;20030;-53
2022/07/22 04:32:50;;;;;;;4.60;4.20;;;25.40;53.70;;;;;;5024103;28;20022;-53
2022/07/22 04:35:16;;;;;;;5.20;4.70;;;25.40;53.80;;;;;;5007080;28;20033;-53
2022/07/22 04:37:41;;;;;;;4.65;4.25;;;25.40;53.80;;;;;;5006947;28;20404;-51
2022/07/22 04:40:07;;;;;;;4.85;4.45;;;25.40;53.80;;;;;;5023539;28;20017;-53
2022/07/22 04:42:33;;;;;;;4.90;4.40;;;25.40;53.90;;;;;;5023954;28;20034;-53
2022/07/22 04:44:58;;;;;;;5.30;4.75;;;25.40;53.90;;;;;;5024288;28;20030;-47
2022/07/22 04:47:24;;;;;;;5.00;4.50;;;25.40;53.90;;;;;;5024188;28;20030;-53
2022/07/22 04:49:49;;;;;;;5.65;4.25;;;25.40;54.00;;;;;;5023342;28;20033;-51
2022/07/22 04:52:15;;;;;;;4.25;3.85;;;25.40;54.00;;;;;;5023836;28;20057;-42
2022/07/22 04:54:40;;;;;;;4.30;3.90;;;25.40;54.10;;;;;;5024869;28;20510;-52
2022/07/22 04:57:06;;;;;;;4.28;3.88;;;25.40;54.20;;;;;;5024227;28;20040;-51
2022/07/22 04:59:31;;;;;;;5.72;4.35;;;25.40;54.20;;;;;;5023640;28;20033;-49
2022/07/22 05:01:57;;;;;;;7.13;4.43;;;25.40;54.30;;;;;;5023774;28;20642;-48
2022/07/22 05:04:22;;;;;;;4.55;4.10;;;25.40;54.30;;;;;;5023877;28;20051;-48
2022/07/22 05:06:48;;;;;;;5.07;4.18;;;25.50;54.50;;;;;;5025030;28;20034;-52
2022/07/22 05:09:13;;;;;;;5.35;4.20;;;25.40;54.40;;;;;;5027416;28;20033;-48
2022/07/22 05:11:39;;;;;;;4.40;4.00;;;25.40;54.40;;;;;;5027704;28;20064;-53
2022/07/22 05:14:04;;;;;;;5.53;4.32;;;25.40;54.60;;;;;;5027628;28;20087;-50
2022/07/22 05:16:30;;;;;;;4.85;4.22;;;25.40;54.60;;;;;;5026802;28;20026;-52
2022/07/22 05:18:55;;;;;;;4.93;4.53;;;25.40;54.70;;;;;;5026895;28;20083;-51
2022/07/22 05:21:21;;;;;;;4.88;4.47;;;25.40;54.80;;;;;;5026711;28;20029;-52
2022/07/22 05:23:46;;;;;;;5.22;4.47;;;25.50;54.90;;;;;;5027311;28;20485;-49
2022/07/22 05:26:12;;;;;;;5.63;4.43;;;25.40;55.40;;;;;;5027794;28;20039;-52
2022/07/22 05:28:37;;;;;;;5.13;4.68;;;25.50;55.00;;;;;;5026517;28;20684;-53
2022/07/22 05:31:03;;;;;;;5.15;4.65;;;25.50;55.00;;;;;;5009700;28;20064;-49
2022/07/22 05:33:28;;;;;;;4.72;4.32;;;25.40;55.00;;;;;;5027609;28;20030;-50
2022/07/22 05:35:54;;;;;;;4.78;4.28;;;25.40;55.00;;;;;;5027553;28;20041;-49
2022/07/22 05:38:19;;;;;;;5.25;4.75;;;25.40;55.00;;;;;;5027062;28;20030;-50
2022/07/22 05:40:45;;;;;;;4.70;4.30;;;25.40;55.00;;;;;;5026898;28;20084;-47
2022/07/22 05:43:10;;;;;;;5.32;4.93;;;25.40;55.10;;;;;;5027274;28;20030;-47
2022/07/22 05:45:36;;;;;;;6.78;4.72;;;25.40;55.00;;;;;;5026998;28;20098;-48
2022/07/22 05:48:01;;;;;;;5.10;4.70;;;25.40;55.00;;;;;;5026716;28;20095;-49
2022/07/22 05:50:27;;;;;;;4.88;4.30;;;25.40;55.70;;;;;;5026170;28;20041;-49
2022/07/22 05:52:53;;;;;;;5.20;4.68;;;25.40;55.10;;;;;;5026945;28;20025;-49
2022/07/22 05:55:19;;;;;;;5.60;5.05;;;25.40;55.10;;;;;;5025968;28;20025;-48
2022/07/22 05:57:44;;;;;;;6.13;4.72;;;25.40;55.00;;;;;;5027376;28;20032;-48
2022/07/22 06:00:10;;;;;;;5.30;4.80;;;25.40;54.90;;;;;;5026363;28;20552;-48
2022/07/22 06:02:35;;;;;;;5.60;5.10;;;25.40;54.90;;;;;;5026819;28;20041;-53
2022/07/22 06:05:01;;;;;;;5.55;5.05;;;25.40;55.00;;;;;;5026709;28;20036;-48
2022/07/22 06:07:27;;;;;;;6.05;5.28;;;25.40;55.00;;;;;;5026731;28;20030;-48
2022/07/22 06:09:53;;;;;;;5.43;5.00;;;25.40;55.10;;;;;;5026052;28;20060;-50
2022/07/22 06:12:18;;;;;;;6.10;5.18;;;25.30;55.20;;;;;;5009710;28;20117;-51
2022/07/22 06:14:44;;;;;;;5.53;5.00;;;25.40;55.30;;;;;;5009752;28;20057;-53
2022/07/22 06:17:09;;;;;;;7.00;5.68;;;25.40;55.20;;;;;;5026298;28;20108;-52
2022/07/22 06:19:35;;;;;;;6.28;4.90;;;25.40;55.10;;;;;;5025934;28;20032;-48
2022/07/22 06:22:00;;;;;;;6.35;5.00;;;25.40;55.10;;;;;;5026541;28;20245;-53
2022/07/22 06:24:26;;;;;;;6.80;4.82;;;25.40;55.10;;;;;;5026144;28;20762;-51
2022/07/22 06:26:51;;;;;;;5.97;5.40;;;25.40;55.10;;;;;;5026637;28;20030;-52
2022/07/22 06:29:17;;;;;;;5.10;4.70;;;25.40;55.30;;;;;;5026073;28;20025;-52
2022/07/22 06:31:42;;;;;;;5.38;4.88;;;25.30;55.20;;;;;;5027000;28;20033;-49
2022/07/22 06:34:08;;;;;;;8.23;5.28;;;25.40;55.30;;;;;;5025333;28;20025;-49
2022/07/22 06:36:33;;;;;;;5.65;5.05;;;25.40;55.30;;;;;;5026536;28;20519;-54
2022/07/22 06:38:59;;;;;;;5.55;5.13;;;25.40;55.40;;;;;;5025445;28;20033;-51
2022/07/22 06:41:25;;;;;;;5.70;5.15;;;25.30;55.40;;;;;;5026221;28;20038;-51
2022/07/22 06:43:50;;;;;;;5.88;5.38;;;25.30;55.50;;;;;;5023690;28;20129;-49
2022/07/22 06:46:16;;;;;;;6.07;5.07;;;25.30;55.40;;;;;;5008893;28;20038;-50
2022/07/22 06:48:41;;;;;;;5.75;5.25;;;25.30;55.40;;;;;;5025335;28;20028;-49
2022/07/22 06:51:07;;;;;;;7.90;5.10;;;25.30;55.40;;;;;;5025918;28;20033;-51
2022/07/22 06:53:32;;;;;;;6.40;5.80;;;25.40;55.50;;;;;;5025652;28;20026;-53
2022/07/22 06:55:58;;;;;;;6.45;5.70;;;25.40;55.40;;;;;;5025265;28;20021;-52
2022/07/22 06:58:23;;;;;;;6.40;5.80;;;25.40;55.40;;;;;;5025559;28;20180;-49
2022/07/22 07:00:49;;;;;;;6.45;5.65;;;25.30;55.60;;;;;;5025677;28;20029;-51
2022/07/22 07:03:14;;;;;;;7.20;6.13;;;25.30;55.60;;;;;;5025988;28;20025;-48
2022/07/22 07:05:40;;;;;;;6.95;6.22;;;25.30;55.50;;;;;;5025764;28;20050;-52
2022/07/22 07:08:05;;;;;;;6.90;5.72;;;25.30;55.40;;;;;;5025521;28;20540;-50
2022/07/22 07:10:31;;;;;;;7.60;5.78;;;25.30;55.40;;;;;;5007355;28;20300;-52
2022/07/22 07:12:57;;;;;;;6.40;5.82;;;25.30;55.30;;;;;;5025835;28;20579;-51
2022/07/22 07:15:23;;;;;;;7.03;6.32;;;25.30;56.00;;;;;;5025144;28;20129;-52
2022/07/22 07:17:49;;;;;;;6.82;6.15;;;25.30;55.50;;;;;;4991791;28;20045;-49
2022/07/22 07:20:14;;;;;;;6.95;6.18;;;25.30;55.60;;;;;;5007431;28;20126;-50
2022/07/22 07:22:40;;;;;;;6.60;5.90;;;25.30;55.60;;;;;;5025604;28;20026;-50
2022/07/22 07:25:07;;;;;;;7.35;6.65;;;25.30;55.50;;;;;;5025673;28;20072;-51
2022/07/22 07:27:32;;;;;;;6.90;6.30;;;25.30;55.40;;;;;;5025379;28;20033;-50
2022/07/22 07:29:58;;;;;;;7.03;6.30;;;25.30;55.50;;;;;;5023905;28;20079;-49
2022/07/22 07:32:23;;;;;;;6.72;6.10;;;25.40;55.60;;;;;;5007537;28;20164;-48
2022/07/22 07:34:49;;;;;;;7.70;7.00;;;25.30;55.50;;;;;;5025148;28;20063;-49
2022/07/22 07:37:15;;;;;;;6.60;6.00;;;25.30;55.50;;;;;;5025473;28;20530;-47
2022/07/22 07:39:40;;;;;;;7.18;5.95;;;25.30;55.60;;;;;;5024531;28;20029;-51
2022/07/22 07:42:06;;;;;;;6.50;5.90;;;25.30;55.60;;;;;;4997634;28;20025;-50
2022/07/22 07:44:31;;;;;;;6.70;6.05;;;25.30;55.70;;;;;;5024744;28;20065;-49
2022/07/22 07:46:57;;;;;;;6.65;5.85;;;25.30;55.80;;;;;;5024978;28;20120;-50
2022/07/22 07:49:23;;;;;;;7.28;6.55;;;25.30;55.80;;;;;;5024359;28;20037;-48
2022/07/22 07:51:48;;;;;;;6.85;6.13;;;25.30;55.70;;;;;;5024603;28;20102;-50
2022/07/22 07:54:14;;;;;;;7.22;6.53;;;25.30;55.70;;;;;;5025505;28;20037;-48
2022/07/22 07:56:40;;;;;;;6.70;5.90;;;25.30;55.60;;;;;;5024935;28;20037;-48
2022/07/22 07:59:05;;;;;;;6.65;6.05;;;25.30;55.60;;;;;;5024475;28;20053;-50
2022/07/22 08:01:31;;;;;;;6.85;6.25;;;25.30;55.60;;;;;;5024516;28;20080;-47
2022/07/22 08:03:56;;;;;;;7.22;6.53;;;25.30;55.60;;;;;;5024267;28;20124;-47
2022/07/22 08:06:22;;;;;;;6.68;6.07;;;25.30;55.60;;;;;;5024172;28;20069;-49
2022/07/22 08:08:47;;;;;;;6.45;5.95;;;25.30;55.70;;;;;;5024596;28;20025;-48
2022/07/22 08:11:16;;;;;;;7.78;6.57;;;25.30;55.70;;;;;;5024268;28;20041;-48
2022/07/22 08:13:41;;;;;;;6.85;6.15;;;25.30;55.70;;;;;;5024822;28;20056;-47
2022/07/22 08:16:06;;;;;;;8.23;6.75;;;25.30;55.60;;;;;;5024385;28;20094;-50
2022/07/22 08:18:32;;;;;;;6.50;5.90;;;25.30;55.50;;;;;;5023769;28;20022;-49
2022/07/22 08:20:58;;;;;;;6.53;5.93;;;25.30;55.60;;;;;;5023951;28;20037;-49
2022/07/22 08:23:23;;;;;;;7.30;6.45;;;25.30;55.50;;;;;;5024350;28;20040;-48
2022/07/22 08:25:49;;;;;;;7.47;6.45;;;25.40;55.50;;;;;;5025144;28;20440;-47
2022/07/22 08:28:14;;;;;;;6.82;6.20;;;25.40;55.50;;;;;;5024278;28;20034;-49
2022/07/22 08:30:40;;;;;;;6.90;6.20;;;25.40;55.50;;;;;;5023404;28;20103;-47
2022/07/22 08:33:05;;;;;;;6.63;5.93;;;25.30;55.40;;;;;;5024189;28;20032;-48
2022/07/22 08:35:31;;;;;;;6.28;5.68;;;25.40;55.30;;;;;;5023722;28;20044;-48
2022/07/22 08:37:57;;;;;;;6.07;5.53;;;25.40;55.30;;;;;;5024066;28;20033;-48
2022/07/22 08:40:22;;;;;;;7.05;6.35;;;25.40;55.30;;;;;;5024111;28;20037;-48
2022/07/22 08:42:48;;;;;;;6.57;5.97;;;25.30;55.30;;;;;;5028523;28;20025;-48
2022/07/22 08:45:14;;;;;;;5.90;5.40;;;25.40;55.50;;;;;;5028133;28;20037;-52
2022/07/22 08:47:39;;;;;;;7.90;6.22;;;25.30;55.50;;;;;;5028077;28;20056;-50
2022/07/22 08:50:05;;;;;;;7.13;6.43;;;25.30;55.40;;;;;;5009702;28;20032;-50
2022/07/22 08:52:31;;;;;;;6.82;5.88;;;25.40;55.50;;;;;;5027136;28;20123;-52
2022/07/22 08:54:56;;;;;;;8.13;6.20;;;25.40;55.30;;;;;;5028123;28;20322;-49
2022/07/22 08:57:22;;;;;;;6.90;5.70;;;25.30;55.30;;;;;;5028078;28;20041;-50
2022/07/22 08:59:57;;;;;;;6.18;5.68;;;25.30;55.30;;;;;;5027910;28;20029;-51
2022/07/22 09:02:23;;;;;;;6.78;6.18;;;25.40;55.30;;;;;;5027112;28;21230;-49
2022/07/22 09:04:59;;;;;;;8.93;6.50;;;25.30;55.80;;;;;;5027509;28;20029;-50
2022/07/22 09:07:32;;;;;;;7.07;6.15;;;25.30;55.20;;;;;;5027732;28;20033;-51
2022/07/22 09:09:58;;;;;;;6.82;6.20;;;25.30;55.10;;;;;;5026989;28;20407;-50
2022/07/22 09:12:23;;;;;;;12.13;6.78;;;25.30;55.00;;;;;;5027575;28;20044;-49
2022/07/22 09:14:53;;;;;;;6.60;6.00;;;25.30;55.00;;;;;;5028151;28;20216;-52
2022/07/22 09:17:35;;;;;;;6.40;5.80;;;25.30;54.90;;;;;;5027693;28;20040;-48
2022/07/22 09:20:01;;;;;;;6.00;5.45;;;25.30;54.90;;;;;;5026827;28;20435;-48
2022/07/22 09:22:40;;;;;;;6.68;6.10;;;25.30;54.80;;;;;;5027998;28;20032;-52
2022/07/22 09:25:31;;;;;;;6.63;5.90;;;25.30;54.80;;;;;;5027714;28;20034;-50
2022/07/22 09:28:10;;;;;;;6.78;6.10;;;25.40;54.80;;;;;;5010458;28;20026;-51
2022/07/22 09:30:45;;;;;;;6.18;5.57;;;25.40;54.70;;;;;;5027124;28;20033;-50
2022/07/22 09:33:11;;;;;;;6.88;6.20;;;25.30;54.60;;;;;;5027881;28;20033;-48
2022/07/22 09:35:37;;;;;;;6.25;5.60;;;25.40;54.60;;;;;;5009941;28;20408;-51
2022/07/22 09:38:05;;;;;;;6.22;5.63;;;25.40;54.60;;;;;;5027053;28;20037;-51
2022/07/22 09:40:38;;;;;;;7.18;5.45;;;25.40;54.70;;;;;;5026332;28;20400;-48
2022/07/22 09:43:05;;;;;;;6.30;5.70;;;25.30;54.60;;;;;;5027289;28;20025;-48
2022/07/22 09:45:31;;;;;;;6.03;5.50;;;25.40;54.70;;;;;;5026871;28;20041;-51
2022/07/22 09:47:57;;;;;;;6.07;5.45;;;25.40;54.60;;;;;;5027250;28;20117;-49
2022/07/22 09:50:24;;;;;;;6.40;5.78;;;25.40;54.60;;;;;;5008839;28;20038;-50
2022/07/22 09:52:51;;;;;;;6.38;5.78;;;25.40;54.60;;;;;;5025935;28;20520;-48
2022/07/22 09:55:17;;;;;;;6.40;5.82;;;25.30;54.50;;;;;;5027382;28;20469;-48
2022/07/22 09:57:43;;;;;;;5.75;5.00;;;25.30;54.50;;;;;;4999962;28;20045;-50
2022/07/22 10:00:09;;;;;;;7.22;6.07;;;25.40;54.50;;;;;;5008638;28;20125;-48
2022/07/22 10:02:40;;;;;;;6.05;5.45;;;25.30;54.40;;;;;;5026443;28;20030;-48
2022/07/22 10:05:06;;;;;;;6.88;6.03;;;25.30;54.40;;;;;;4993110;28;20515;-48
2022/07/22 10:07:32;;;;;;;6.93;6.22;;;25.30;54.30;;;;;;4993020;28;20037;-48
2022/07/22 10:09:58;;;;;;;6.75;6.15;;;25.30;54.20;;;;;;5025821;28;20030;-47
2022/07/22 10:12:23;;;;;;;5.90;5.22;;;25.30;54.10;;;;;;4992835;28;20404;-47
2022/07/22 10:14:48;;;;;;;6.47;5.55;;;25.30;54.10;;;;;;5009348;28;20232;-47
2022/07/22 10:17:14;;;;;;;6.45;5.82;;;25.30;54.00;;;;;;5008355;28;20704;-50
2022/07/22 10:19:40;;;;;;;6.53;5.70;;;25.30;53.90;;;;;;4992098;28;20075;-47
2022/07/22 10:22:15;;;;;;;6.13;5.60;;;25.40;54.00;;;;;;5008825;28;20025;-49
2022/07/22 10:24:59;;;;;;;5.32;4.93;;;25.40;53.90;;;;;;4994125;28;20050;-48
2022/07/22 10:27:51;;;;;;;5.95;5.45;;;25.40;53.80;;;;;;5025678;28;20041;-48
2022/07/22 10:30:18;;;;;;;5.85;5.35;;;25.30;53.70;;;;;;5008017;28;20499;-50
2022/07/22 10:32:44;;;;;;;6.97;6.28;;;25.30;53.70;;;;;;4999152;28;20034;-48
2022/07/22 10:35:09;;;;;;;5.80;5.30;;;25.30;53.70;;;;;;5026602;28;20584;-48
2022/07/22 10:37:37;;;;;;;5.40;4.90;;;25.30;53.70;;;;;;5026159;28;20034;-48
2022/07/22 10:40:21;;;;;;;6.10;5.50;;;25.30;53.70;;;;;;5025604;28;20018;-48
2022/07/22 10:43:03;;;;;;;6.32;5.70;;;25.30;53.60;;;;;;5025470;28;21396;-48
2022/07/22 10:45:31;;;;;;;5.07;4.63;;;25.40;53.70;;;;;;5025960;28;20041;-49
2022/07/22 10:47:57;;;;;;;5.97;5.47;;;25.40;53.70;;;;;;5008382;28;20029;-48
2022/07/22 10:50:37;;;;;;;5.75;5.25;;;25.40;53.70;;;;;;5025310;28;20041;-48
2022/07/22 10:53:03;;;;;;;5.30;4.80;;;25.40;53.70;;;;;;5025767;28;20484;-50
2022/07/22 10:55:28;;;;;;;6.25;5.65;;;25.40;53.80;;;;;;5008123;28;20041;-49
2022/07/22 10:57:54;;;;;;;6.18;5.30;;;25.40;53.80;;;;;;5025590;28;20237;-51
2022/07/22 11:00:23;;;;;;;5.75;5.25;;;25.40;53.70;;;;;;5025489;28;20164;-49
2022/07/22 11:02:48;;;;;;;5.88;5.20;;;25.40;53.70;;;;;;5025843;28;20099;-51
2022/07/22 11:05:14;;;;;;;6.18;5.57;;;25.40;53.60;;;;;;5025836;28;20455;-50
2022/07/22 11:07:43;;;;;;;5.57;5.07;;;25.40;53.60;;;;;;5024732;28;20373;-51
2022/07/22 11:10:16;;;;;;;6.10;5.50;;;25.40;53.60;;;;;;5025361;28;20029;-52
2022/07/22 11:12:42;;;;;;;6.22;5.63;;;25.40;53.50;;;;;;5025494;28;20037;-51
2022/07/22 11:15:08;;;;;;;5.82;5.32;;;25.40;53.60;;;;;;5025927;28;20515;-49
2022/07/22 11:17:37;;;;;;;5.45;4.95;;;25.40;53.60;;;;;;5025918;28;20083;-48
2022/07/22 11:20:07;;;;;;;5.68;5.18;;;25.40;53.50;;;;;;5024890;28;20033;-48
2022/07/22 11:22:32;;;;;;;5.53;5.03;;;25.40;53.50;;;;;;5007416;28;20041;-49
2022/07/22 11:25:00;;;;;;;6.07;5.57;;;25.40;53.40;;;;;;5025728;28;20029;-50
2022/07/22 11:27:26;;;;;;;5.00;4.55;;;25.40;53.40;;;;;;5025285;28;20424;-49
2022/07/22 11:29:52;;;;;;;5.60;4.72;;;25.50;53.50;;;;;;5024588;28;20026;-48
2022/07/22 11:32:19;;;;;;;5.45;4.95;;;25.50;53.50;;;;;;5025379;28;20052;-49
2022/07/22 11:34:46;;;;;;;5.53;5.03;;;25.40;53.50;;;;;;5024806;28;20060;-48
2022/07/22 11:37:15;;;;;;;5.28;4.78;;;25.50;53.60;;;;;;5025064;28;20038;-48
2022/07/22 11:39:40;;;;;;;6.95;5.53;;;25.50;53.60;;;;;;5006603;28;20030;-49
2022/07/22 11:42:06;;;;;;;5.80;5.30;;;25.40;53.40;;;;;;5024541;28;20033;-48
2022/07/22 11:44:34;;;;;;;7.88;5.50;;;25.50;53.30;;;;;;5025064;28;20038;-48
2022/07/22 11:47:00;;;;;;;5.18;4.70;;;25.50;53.40;;;;;;5025099;28;20037;-49
2022/07/22 11:49:34;;;;;;;5.85;5.35;;;25.50;53.40;;;;;;5023873;28;20052;-51
2022/07/22 11:52:04;;;;;;;6.33;5.80;;;25.50;53.40;;;;;;5024680;28;20471;-48
2022/07/22 11:54:29;;;;;;;5.45;4.95;;;25.50;53.30;;;;;;5007584;28;20491;-49
2022/07/22 11:56:56;;;;;;;4.97;4.57;;;25.50;53.40;;;;;;5024799;28;20124;-49
2022/07/22 11:59:21;;;;;;;9.02;5.50;;;25.50;53.30;;;;;;5023572;28;20186;-48
2022/07/22 12:01:48;;;;;;;6.18;4.85;;;25.50;53.30;;;;;;5024793;28;20052;-49
2022/07/22 12:04:18;;;;;;;5.65;5.15;;;25.50;53.30;;;;;;5024558;28;20034;-49
2022/07/22 12:06:43;;;;;;;5.22;4.82;;;25.50;53.30;;;;;;5024270;28;20025;-48
2022/07/22 12:09:33;;;;;;;5.05;4.65;;;25.50;53.20;;;;;;5006028;28;20024;-49
2022/07/22 12:11:59;;;;;;;5.35;4.95;;;25.50;53.20;;;;;;5023997;28;20032;-49
2022/07/22 12:14:29;;;;;;;5.32;4.82;;;25.50;53.20;;;;;;5024166;28;20030;-47
2022/07/22 12:16:59;;;;;;;5.65;5.15;;;25.50;53.20;;;;;;5006332;28;20029;-48
2022/07/22 12:19:28;;;;;;;5.22;4.72;;;25.50;53.20;;;;;;5006059;28;20034;-50
2022/07/22 12:21:58;;;;;;;5.85;5.25;;;25.50;53.20;;;;;;5024256;28;20053;-51
2022/07/22 12:24:27;;;;;;;5.97;5.47;;;25.50;53.20;;;;;;5024485;28;20262;-49
2022/07/22 12:26:53;;;;;;;5.85;5.32;;;25.50;53.20;;;;;;5023918;28;20712;-49
2022/07/22 12:29:29;;;;;;;5.90;5.28;;;25.50;53.20;;;;;;5006428;28;20044;-47
2022/07/22 12:31:59;;;;;;;6.10;5.32;;;25.50;53.20;;;;;;5023840;28;20029;-47
2022/07/22 12:34:38;;;;;;;6.18;5.68;;;25.50;53.00;;;;;;5014026;28;20155;-50
2022/07/22 12:37:23;;;;;;;7.05;5.53;;;25.50;53.10;;;;;;5023164;28;20144;-51
2022/07/22 12:40:08;;;;;;;5.88;5.28;;;25.50;53.00;;;;;;4980144;28;20033;-48
2022/07/22 12:42:36;;;;;;;5.70;5.20;;;25.60;53.10;;;;;;5023815;28;20537;-49
2022/07/22 12:45:07;;;;;;;5.38;4.97;;;25.50;53.00;;;;;;5023467;28;20091;-48